Time;durP1;ratioP1;P1;durP2;ratioP2;P2;SDS_P1;SDS_P2;PMS_P1;PMS_P2;Temp;Humidity;BMP_temperature;BMP_pressure;BME280_temperature;BME280_humidity;BME280_pressure;Samples;Min_cycle;Max_cycle;Signal;HPM_P1;HPM_P2
2022/10/12 00:01:15;;;;;;;;;;;10.80;99.90;;;;;;5074415;28;19991;-78
2022/10/12 00:03:41;;;;;;;;;;;10.70;99.90;;;;;;5074928;28;19904;-79
2022/10/12 00:06:08;;;;;;;;;;;10.70;99.90;;;;;;5074328;28;19904;-80
2022/10/12 00:08:34;;;;;;;;;;;10.80;99.90;;;;;;5056404;28;19905;-78
2022/10/12 00:11:00;;;;;;;;;;;10.70;99.90;;;;;;5074379;28;20281;-80
2022/10/12 00:13:26;;;;;;;;;;;10.70;99.90;;;;;;5074094;28;19905;-80
2022/10/12 00:15:51;;;;;;;;;;;10.80;99.90;;;;;;5074810;28;20344;-80
2022/10/12 00:18:17;;;;;;;;;;;10.80;99.90;;;;;;5074117;28;19991;-79
2022/10/12 00:20:43;;;;;;;;;;;10.90;99.90;;;;;;5074679;28;19905;-79
2022/10/12 00:23:09;;;;;;;;;;;10.90;99.90;;;;;;5073992;28;19971;-80
2022/10/12 00:25:35;;;;;;;;;;;11.00;99.90;;;;;;5074050;28;19905;-78
2022/10/12 00:28:00;;;;;;;;;;;10.90;99.90;;;;;;5073918;28;19916;-79
2022/10/12 00:30:26;;;;;;;;;;;10.90;99.90;;;;;;5074190;28;19912;-79
2022/10/12 00:32:51;;;;;;;;;;;11.00;99.90;;;;;;5073821;28;19971;-79
2022/10/12 00:35:17;;;;;;;;;;;11.00;99.90;;;;;;5074464;28;19911;-80
2022/10/12 00:37:42;;;;;;;;;;;10.80;99.90;;;;;;5073825;28;19966;-81
2022/10/12 00:40:08;;;;;;;;;;;10.70;99.90;;;;;;5074459;28;19991;-80
2022/10/12 00:42:33;;;;;;;;;;;10.60;99.90;;;;;;5074199;28;19904;-77
2022/10/12 00:44:59;;;;;;;;;;;10.60;99.90;;;;;;5074413;28;19958;-79
2022/10/12 00:47:27;;;;;;;;;;;10.70;99.90;;;;;;5073762;28;19955;-79
2022/10/12 00:49:55;;;;;;;;;;;10.80;99.90;;;;;;5055700;28;19908;-79
2022/10/12 00:52:24;;;;;;;;;;;10.90;99.90;;;;;;5073637;28;19904;-80
2022/10/12 00:54:52;;;;;;;;;;;10.80;99.90;;;;;;5073697;28;19916;-79
2022/10/12 00:57:18;;;;;;;;;;;10.80;99.90;;;;;;5073672;28;19927;-79
2022/10/12 00:59:49;;;;;;;;;;;10.80;99.90;;;;;;5073724;28;19958;-79
2022/10/12 01:02:14;;;;;;;;;;;10.80;99.90;;;;;;5073651;28;19919;-80
2022/10/12 01:04:40;;;;;;;;;;;11.00;99.90;;;;;;5073556;28;19904;-79
2022/10/12 01:07:06;;;;;;;;;;;10.90;99.90;;;;;;5074100;28;19904;-80
2022/10/12 01:09:32;;;;;;;;;;;10.90;99.90;;;;;;5078131;28;19945;-80
2022/10/12 01:11:57;;;;;;;;;;;10.70;99.90;;;;;;5077708;28;19912;-80
2022/10/12 01:14:23;;;;;;;;;;;10.60;99.90;;;;;;5077660;28;19911;-79
2022/10/12 01:16:54;;;;;;;;;;;10.60;99.90;;;;;;5077491;28;20422;-79
2022/10/12 01:19:23;;;;;;;;;;;10.60;99.90;;;;;;5077809;28;19910;-79
2022/10/12 01:21:52;;;;;;;;;;;10.60;99.90;;;;;;5077424;28;19995;-79
2022/10/12 01:24:20;;;;;;;;;;;10.60;99.90;;;;;;5077448;28;19905;-78
2022/10/12 01:27:04;;;;;;;;;;;10.50;99.90;;;;;;5077492;28;19966;-79
2022/10/12 01:29:48;;;;;;;;;;;10.50;99.90;;;;;;5075843;28;19920;-79
2022/10/12 01:32:20;;;;;;;;;;;10.50;99.90;;;;;;5076265;28;19950;-79
2022/10/12 01:34:54;;;;;;;;;;;10.40;99.90;;;;;;5075831;28;19905;-78
2022/10/12 01:37:22;;;;;;;;;;;10.30;99.90;;;;;;5075827;28;19994;-80
2022/10/12 01:39:50;;;;;;;;;;;10.20;99.90;;;;;;5076383;28;20015;-79
2022/10/12 01:42:22;;;;;;;;;;;10.10;99.90;;;;;;5075850;28;20368;-80
2022/10/12 01:44:47;;;;;;;;;;;10.00;99.90;;;;;;5076288;28;19904;-78
2022/10/12 01:47:13;;;;;;;;;;;10.10;99.90;;;;;;5075941;28;19908;-78
2022/10/12 01:49:38;;;;;;;;;;;10.00;99.90;;;;;;5075646;28;19912;-80
2022/10/12 01:52:10;;;;;;;;;;;10.10;99.90;;;;;;5075901;28;19905;-79
2022/10/12 01:54:48;;;;;;;;;;;10.10;99.90;;;;;;5075611;28;19948;-78
2022/10/12 01:57:14;;;;;;;;;;;10.20;99.90;;;;;;5075961;28;19951;-79
2022/10/12 01:59:54;;;;;;;;;;;10.40;99.90;;;;;;5075859;28;20272;-80
2022/10/12 02:02:29;;;;;;;;;;;10.40;99.90;;;;;;5075980;28;20253;-79
2022/10/12 02:04:59;;;;;;;;;;;10.30;99.90;;;;;;5075759;28;19912;-79
2022/10/12 02:07:36;;;;;;;;;;;10.50;99.90;;;;;;5075332;28;19927;-77
2022/10/12 02:10:04;;;;;;;;;;;10.50;99.90;;;;;;5075541;28;19908;-78
2022/10/12 02:12:30;;;;;;;;;;;10.50;99.90;;;;;;5075228;28;19908;-79
2022/10/12 02:14:59;;;;;;;;;;;10.50;99.90;;;;;;5057285;28;19967;-79
2022/10/12 02:17:25;;;;;;;;;;;10.40;99.90;;;;;;5075639;28;19905;-80
2022/10/12 02:19:55;;;;;;;;;;;10.30;99.90;;;;;;5074792;28;19999;-78
2022/10/12 02:22:21;;;;;;;;;;;10.30;99.90;;;;;;5075259;28;19905;-78
2022/10/12 02:24:49;;;;;;;;;;;10.10;99.90;;;;;;5075717;28;20062;-80
2022/10/12 02:27:17;;;;;;;;;;;10.10;99.90;;;;;;5057151;28;19908;-78
2022/10/12 02:29:45;;;;;;;;;;;10.00;99.90;;;;;;4947149;28;3078905;-80
2022/10/12 02:32:18;;;;;;;;;;;10.00;99.90;;;;;;5056412;28;20335;-78
2022/10/12 02:34:46;;;;;;;;;;;10.00;99.90;;;;;;5056458;28;19955;-77
2022/10/12 02:37:20;;;;;;;;;;;10.10;99.90;;;;;;5056634;28;20349;-79
2022/10/12 02:39:59;;;;;;;;;;;10.00;99.90;;;;;;5056368;28;19905;-79
2022/10/12 02:42:29;;;;;;;;;;;10.00;99.90;;;;;;5054488;28;19905;-80
2022/10/12 02:44:56;;;;;;;;;;;10.00;99.90;;;;;;5055873;28;19905;-80
2022/10/12 02:47:24;;;;;;;;;;;10.00;99.90;;;;;;5056131;28;19911;-79
2022/10/12 02:49:50;;;;;;;;;;;9.90;99.90;;;;;;5055694;28;19909;-79
2022/10/12 02:52:16;;;;;;;;;;;10.00;99.90;;;;;;5054479;28;19948;-79
2022/10/12 02:54:41;;;;;;;;;;;10.00;99.90;;;;;;5056047;28;19962;-81
2022/10/12 02:57:07;;;;;;;;;;;10.10;99.90;;;;;;5055978;28;20412;-79
2022/10/12 02:59:33;;;;;;;;;;;10.20;99.90;;;;;;5055605;28;19998;-79
2022/10/12 03:01:58;;;;;;;;;;;10.30;99.90;;;;;;5055641;28;20027;-78
2022/10/12 03:04:24;;;;;;;;;;;10.20;99.90;;;;;;5055602;28;19904;-77
2022/10/12 03:06:49;;;;;;;;;;;10.20;99.90;;;;;;5055470;28;19999;-79
2022/10/12 03:09:15;;;;;;;;;;;10.30;99.90;;;;;;5055698;28;20341;-80
2022/10/12 03:11:43;;;;;;;;;;;10.40;99.90;;;;;;5055411;28;20273;-79
2022/10/12 03:14:10;;;;;;;;;;;10.20;99.90;;;;;;5055714;28;19905;-79
2022/10/12 03:16:35;;;;;;;;;;;10.10;99.90;;;;;;5055573;28;19936;-78
2022/10/12 03:19:01;;;;;;;;;;;10.00;99.90;;;;;;5055811;28;19911;-79
2022/10/12 03:21:26;;;;;;;;;;;10.00;99.90;;;;;;5055224;28;20003;-79
2022/10/12 03:23:52;;;;;;;;;;;10.00;99.90;;;;;;5055432;28;20363;-77
2022/10/12 03:26:17;;;;;;;;;;;9.90;99.90;;;;;;5055479;28;19916;-79
2022/10/12 03:28:44;;;;;;;;;;;9.90;99.90;;;;;;5062935;28;19913;-79
2022/10/12 03:31:09;;;;;;;;;;;9.90;99.90;;;;;;5074276;28;20285;-78
2022/10/12 03:33:35;;;;;;;;;;;10.00;99.90;;;;;;5075458;28;19912;-79
2022/10/12 03:36:00;;;;;;;;;;;10.00;99.90;;;;;;5057046;28;19904;-78
2022/10/12 03:38:26;;;;;;;;;;;10.00;99.90;;;;;;5074733;28;19912;-78
2022/10/12 03:40:51;;;;;;;;;;;10.00;99.90;;;;;;5075019;28;19912;-78
2022/10/12 03:43:17;;;;;;;;;;;10.00;99.90;;;;;;5074772;28;20353;-77
2022/10/12 03:45:42;;;;;;;;;;;10.00;99.90;;;;;;5074519;28;19905;-77
2022/10/12 03:48:08;;;;;;;;;;;9.90;99.90;;;;;;5074827;28;19953;-79
2022/10/12 03:50:34;;;;;;;;;;;9.80;99.90;;;;;;5074788;28;19958;-77
2022/10/12 03:53:00;;;;;;;;;;;9.70;99.90;;;;;;5074597;28;19962;-78
2022/10/12 03:55:25;;;;;;;;;;;9.60;99.90;;;;;;5074793;28;19909;-79
2022/10/12 03:57:51;;;;;;;;;;;9.50;99.90;;;;;;5074433;28;19904;-79
2022/10/12 04:00:16;;;;;;;;;;;9.40;99.90;;;;;;5074502;28;19904;-78
2022/10/12 04:02:42;;;;;;;;;;;9.30;99.90;;;;;;5074879;28;19912;-78
2022/10/12 04:05:08;;;;;;;;;;;9.30;99.90;;;;;;5074272;28;20292;-78
2022/10/12 04:07:33;;;;;;;;;;;9.30;99.90;;;;;;5074858;28;19905;-77
2022/10/12 04:09:59;;;;;;;;;;;9.40;99.90;;;;;;5074138;28;19912;-78
2022/10/12 04:12:24;;;;;;;;;;;9.20;99.90;;;;;;5074146;28;19911;-79
2022/10/12 04:14:50;;;;;;;;;;;9.10;99.90;;;;;;5074895;28;19904;-78
2022/10/12 04:17:15;;;;;;;;;;;9.10;99.90;;;;;;5074504;28;19905;-78
2022/10/12 04:19:41;;;;;;;;;;;8.90;99.90;;;;;;5074886;28;19904;-79
2022/10/12 04:22:07;;;;;;;;;;;8.90;99.90;;;;;;5074303;28;19912;-78
2022/10/12 04:24:32;;;;;;;;;;;8.90;99.90;;;;;;5073976;28;19904;-79
2022/10/12 04:26:58;;;;;;;;;;;9.00;99.90;;;;;;5056139;28;20003;-77
2022/10/12 04:29:23;;;;;;;;;;;9.00;99.90;;;;;;5073537;28;19923;-79
2022/10/12 04:31:49;;;;;;;;;;;8.90;99.90;;;;;;5074024;28;19908;-79
2022/10/12 04:34:14;;;;;;;;;;;8.90;99.90;;;;;;5074360;28;19904;-79
2022/10/12 04:36:40;;;;;;;;;;;8.80;99.90;;;;;;5073757;28;20482;-79
2022/10/12 04:39:05;;;;;;;;;;;8.80;99.90;;;;;;5074178;28;19911;-79
2022/10/12 04:41:31;;;;;;;;;;;8.90;99.90;;;;;;5055682;28;19904;-79
2022/10/12 04:43:57;;;;;;;;;;;8.90;99.90;;;;;;5074083;28;19911;-78
2022/10/12 04:46:22;;;;;;;;;;;9.00;99.90;;;;;;5074098;28;19904;-80
2022/10/12 04:48:48;;;;;;;;;;;9.10;99.90;;;;;;5073812;28;19909;-78
2022/10/12 04:51:13;;;;;;;;;;;9.20;99.90;;;;;;5074039;28;19904;-77
2022/10/12 04:53:39;;;;;;;;;;;8.80;99.90;;;;;;5073804;28;19939;-80
2022/10/12 04:56:05;;;;;;;;;;;8.60;99.90;;;;;;5073985;28;19947;-79
2022/10/12 04:58:30;;;;;;;;;;;8.60;99.90;;;;;;5073687;28;19926;-79
2022/10/12 05:00:56;;;;;;;;;;;8.70;99.90;;;;;;5073671;28;19904;-79
2022/10/12 05:03:21;;;;;;;;;;;8.80;99.90;;;;;;5073951;28;19905;-78
2022/10/12 05:05:47;;;;;;;;;;;8.90;99.90;;;;;;5055716;28;19910;-78
2022/10/12 05:08:12;;;;;;;;;;;8.80;99.90;;;;;;5073924;28;20265;-80
2022/10/12 05:10:39;;;;;;;;;;;8.80;99.90;;;;;;5055581;28;19915;-80
2022/10/12 05:13:04;;;;;;;;;;;8.90;99.90;;;;;;5074113;28;20273;-79
2022/10/12 05:15:30;;;;;;;;;;;9.10;99.90;;;;;;5073560;28;19990;-80
2022/10/12 05:17:55;;;;;;;;;;;9.30;99.90;;;;;;5073772;28;19994;-80
2022/10/12 05:20:21;;;;;;;;;;;9.20;99.90;;;;;;5073477;28;19904;-79
2022/10/12 05:22:47;;;;;;;;;;;9.30;99.90;;;;;;5073991;28;19905;-79
2022/10/12 05:25:12;;;;;;;;;;;9.20;99.90;;;;;;5073392;28;19908;-79
2022/10/12 05:27:38;;;;;;;;;;;9.00;99.90;;;;;;5073801;28;20356;-78
2022/10/12 05:30:04;;;;;;;;;;;9.30;99.90;;;;;;5073808;28;19924;-79
2022/10/12 05:32:30;;;;;;;;;;;9.10;99.90;;;;;;5073230;28;20314;-79
2022/10/12 05:34:55;;;;;;;;;;;9.00;99.90;;;;;;5073448;28;19911;-78
2022/10/12 05:37:21;;;;;;;;;;;8.90;99.90;;;;;;5073613;28;19905;-80
2022/10/12 05:39:48;;;;;;;;;;;8.90;99.90;;;;;;5073333;28;20341;-80
2022/10/12 05:42:14;;;;;;;;;;;8.80;99.90;;;;;;5073491;28;19999;-79
2022/10/12 05:44:39;;;;;;;;;;;8.60;99.90;;;;;;5073429;28;19951;-80
2022/10/12 05:47:05;;;;;;;;;;;8.60;99.90;;;;;;5073856;28;19904;-79
2022/10/12 05:49:31;;;;;;;;;;;8.70;99.90;;;;;;5073151;28;19931;-79
2022/10/12 05:51:56;;;;;;;;;;;8.60;99.90;;;;;;5073566;28;20003;-78
2022/10/12 05:54:22;;;;;;;;;;;8.60;99.90;;;;;;5075630;28;19908;-80
2022/10/12 05:56:47;;;;;;;;;;;8.60;99.90;;;;;;5077087;28;19953;-79
2022/10/12 05:59:13;;;;;;;;;;;8.60;99.90;;;;;;5076805;28;20360;-78
2022/10/12 06:01:38;;;;;;;;;;;8.60;99.90;;;;;;5076681;28;20353;-78
2022/10/12 06:04:04;;;;;;;;;;;8.50;99.90;;;;;;5076705;28;19908;-79
2022/10/12 06:06:29;;;;;;;;;;;8.40;99.90;;;;;;5076592;28;19908;-78
2022/10/12 06:08:55;;;;;;;;;;;8.40;99.90;;;;;;5076829;28;19910;-78
2022/10/12 06:11:20;;;;;;;;;;;8.40;99.90;;;;;;5076580;28;19942;-77
2022/10/12 06:13:46;;;;;;;;;;;8.50;99.90;;;;;;5076533;28;19999;-78
2022/10/12 06:16:11;;;;;;;;;;;8.40;99.90;;;;;;5077002;28;20017;-78
2022/10/12 06:18:37;;;;;;;;;;;8.30;99.90;;;;;;5076703;28;20391;-79
2022/10/12 06:21:02;;;;;;;;;;;8.30;99.90;;;;;;5076871;28;19904;-79
2022/10/12 06:23:28;;;;;;;;;;;8.30;99.90;;;;;;5076340;28;19911;-79
2022/10/12 06:25:53;;;;;;;;;;;8.10;99.90;;;;;;5076596;28;19991;-79
2022/10/12 06:28:19;;;;;;;;;;;8.20;99.90;;;;;;5075798;28;20288;-80
2022/10/12 06:30:46;;;;;;;;;;;8.30;99.90;;;;;;5058040;28;19916;-79
2022/10/12 06:33:11;;;;;;;;;;;8.40;99.90;;;;;;5076820;28;20272;-79
2022/10/12 06:35:37;;;;;;;;;;;8.50;99.90;;;;;;5075981;28;19904;-77
2022/10/12 06:38:03;;;;;;;;;;;8.30;99.90;;;;;;5076016;28;19905;-80
2022/10/12 06:40:28;;;;;;;;;;;8.20;99.90;;;;;;5076217;28;19905;-80
2022/10/12 06:42:54;;;;;;;;;;;8.30;99.90;;;;;;5075612;28;19909;-79
2022/10/12 06:45:19;;;;;;;;;;;8.40;99.90;;;;;;5058000;28;19997;-80
2022/10/12 06:47:45;;;;;;;;;;;8.40;99.90;;;;;;5076462;28;19997;-79
2022/10/12 06:50:10;;;;;;;;;;;8.50;99.90;;;;;;5075791;28;19908;-79
2022/10/12 06:52:36;;;;;;;;;;;8.50;99.90;;;;;;5075717;28;19954;-79
2022/10/12 06:55:02;;;;;;;;;;;8.50;99.90;;;;;;5076081;28;19908;-80
2022/10/12 06:57:28;;;;;;;;;;;8.50;99.90;;;;;;5075657;28;20003;-76
2022/10/12 06:59:53;;;;;;;;;;;8.50;99.90;;;;;;5075699;28;19948;-79
2022/10/12 07:02:19;;;;;;;;;;;8.60;99.90;;;;;;5075911;28;19908;-78
2022/10/12 07:04:48;;;;;;;;;;;8.70;99.90;;;;;;5074386;28;19962;-79
2022/10/12 07:07:14;;;;;;;;;;;8.70;99.90;;;;;;5075494;28;19904;-78
2022/10/12 07:09:39;;;;;;;;;;;8.60;99.90;;;;;;5075324;28;19912;-79
2022/10/12 07:12:05;;;;;;;;;;;8.90;99.90;;;;;;5075702;28;20284;-77
2022/10/12 07:14:30;;;;;;;;;;;9.10;99.90;;;;;;5075375;28;19904;-77
2022/10/12 07:16:56;;;;;;;;;;;9.00;99.90;;;;;;5057375;28;19904;-78
2022/10/12 07:19:21;;;;;;;;;;;9.00;99.90;;;;;;5075203;28;19904;-78
2022/10/12 07:21:47;;;;;;;;;;;9.00;99.90;;;;;;5075484;28;19904;-77
2022/10/12 07:24:12;;;;;;;;;;;9.20;99.90;;;;;;5075212;28;19912;-76
2022/10/12 07:26:38;;;;;;;;;;;9.30;99.90;;;;;;5075128;28;20030;-77
2022/10/12 07:29:03;;;;;;;;;;;9.50;99.90;;;;;;5053495;28;19913;-76
2022/10/12 07:31:29;;;;;;;;;;;9.60;99.90;;;;;;5053809;28;19908;-79
2022/10/12 07:33:54;;;;;;;;;;;9.90;99.90;;;;;;5054987;28;19911;-78
2022/10/12 07:36:20;;;;;;;;;;;10.10;99.90;;;;;;5053693;28;19905;-78
2022/10/12 07:38:47;;;;;;;;;;;10.30;99.90;;;;;;5055192;28;19912;-77
2022/10/12 07:41:13;;;;;;;;;;;10.70;99.90;;;;;;5054837;28;19905;-78
2022/10/12 07:43:39;;;;;;;;;;;11.00;99.90;;;;;;5054889;28;20258;-77
2022/10/12 07:46:05;;;;;;;;;;;10.90;99.90;;;;;;5054745;28;19912;-77
2022/10/12 07:48:30;;;;;;;;;;;11.10;99.90;;;;;;5053509;28;19905;-78
2022/10/12 07:51:01;;;;;;;;;;;11.10;99.90;;;;;;5054739;28;20353;-79
2022/10/12 07:53:27;;;;;;;;;;;11.20;99.90;;;;;;5054975;28;19966;-76
2022/10/12 07:55:58;;;;;;;;;;;11.30;99.90;;;;;;5054583;28;19904;-77
2022/10/12 07:58:24;;;;;;;;;;;11.20;99.90;;;;;;5055111;28;20318;-77
2022/10/12 08:00:49;;;;;;;;;;;11.10;99.90;;;;;;5054553;28;20001;-77
2022/10/12 08:03:15;;;;;;;;;;;11.20;99.90;;;;;;5053136;28;19905;-75
2022/10/12 08:05:41;;;;;;;;;;;11.10;99.90;;;;;;5054758;28;19927;-78
2022/10/12 08:08:07;;;;;;;;;;;10.90;99.90;;;;;;5054313;28;19958;-79
2022/10/12 08:10:33;;;;;;;;;;;10.70;99.90;;;;;;5054566;28;20420;-77
2022/10/12 08:12:59;;;;;;;;;;;10.80;99.90;;;;;;5054306;28;19913;-78
2022/10/12 08:15:24;;;;;;;;;;;10.90;99.90;;;;;;5054701;28;19940;-77
2022/10/12 08:17:50;;;;;;;;;;;11.40;99.90;;;;;;5052512;28;20387;-78
2022/10/12 08:20:15;;;;;;;;;;;11.50;99.90;;;;;;5054221;28;19958;-79
2022/10/12 08:22:41;;;;;;;;;;;12.10;99.90;;;;;;5052868;28;19991;-77
2022/10/12 08:25:07;;;;;;;;;;;12.70;99.90;;;;;;5054114;28;19951;-77
2022/10/12 08:27:32;;;;;;;;;;;13.10;99.90;;;;;;5054355;28;19969;-80
2022/10/12 08:29:58;;;;;;;;;;;13.40;99.90;;;;;;5071685;28;19923;-76
2022/10/12 08:32:24;;;;;;;;;;;13.60;99.90;;;;;;5074265;28;19911;-76
2022/10/12 08:34:50;;;;;;;;;;;13.80;99.90;;;;;;5074671;28;19908;-77
2022/10/12 08:37:16;;;;;;;;;;;14.10;99.90;;;;;;5074366;28;19905;-79
2022/10/12 08:39:41;;;;;;;;;;;14.30;99.90;;;;;;5073993;28;19912;-78
2022/10/12 08:42:26;;;;;;;;;;;14.60;99.90;;;;;;5073834;28;19908;-77
2022/10/12 08:44:58;;;;;;;;;;;14.70;99.90;;;;;;5074349;28;20288;-79
2022/10/12 08:47:33;;;;;;;;;;;14.60;99.90;;;;;;5074209;28;19904;-77
2022/10/12 08:50:01;;;;;;;;;;;14.90;99.90;;;;;;5074044;28;19914;-78
2022/10/12 08:52:32;;;;;;;;;;;15.20;99.90;;;;;;5073728;28;20318;-77
2022/10/12 08:54:59;;;;;;;;;;;15.30;99.90;;;;;;5073728;28;19912;-76
2022/10/12 08:57:25;;;;;;;;;;;15.30;99.90;;;;;;5073937;28;19904;-78
2022/10/12 08:59:50;;;;;;;;;;;15.50;99.90;;;;;;5073791;28;19911;-77
2022/10/12 09:02:35;;;;;;;;;;;15.60;99.90;;;;;;5073678;28;19911;-78
2022/10/12 09:05:05;;;;;;;;;;;15.80;99.90;;;;;;5073709;28;19905;-77
2022/10/12 09:07:37;;;;;;;;;;;16.20;99.90;;;;;;5073912;28;19904;-74
2022/10/12 09:10:12;;;;;;;;;;;16.40;99.90;;;;;;5074093;28;19924;-77
2022/10/12 09:12:56;;;;;;;;;;;16.70;99.90;;;;;;5073605;28;19940;-78
2022/10/12 09:15:23;;;;;;;;;;;16.70;99.90;;;;;;5073559;28;19904;-78
2022/10/12 09:17:53;;;;;;;;;;;16.90;99.90;;;;;;5073527;28;19904;-78
2022/10/12 09:20:19;;;;;;;;;;;17.30;99.90;;;;;;5073512;28;19911;-78
2022/10/12 09:22:46;;;;;;;;;;;17.20;99.90;;;;;;5056319;28;19904;-78
2022/10/12 09:25:13;;;;;;;;;;;17.10;99.90;;;;;;5073411;28;19904;-79
2022/10/12 09:27:39;;;;;;;;;;;17.20;99.90;;;;;;5073340;28;19958;-78
2022/10/12 09:30:05;;;;;;;;;;;17.10;99.90;;;;;;5076537;28;20311;-78
2022/10/12 09:32:31;;;;;;;;;;;17.30;99.90;;;;;;5077641;28;19905;-79
2022/10/12 09:34:57;;;;;;;;;;;17.60;99.90;;;;;;5077564;28;20357;-80
2022/10/12 09:37:24;;;;;;;;;;;17.90;99.90;;;;;;5077151;28;20339;-80
2022/10/12 09:39:50;;;;;;;;;;;18.10;99.90;;;;;;5077780;28;19908;-78
2022/10/12 09:42:15;;;;;;;;;;;18.10;99.90;;;;;;5077202;28;20386;-79
2022/10/12 09:44:43;;;;;;;;;;;18.10;99.90;;;;;;5077068;28;19904;-80
2022/10/12 09:47:22;;;;;;;;;;;17.90;99.90;;;;;;5076988;28;19950;-78
2022/10/12 09:49:51;;;;;;;;;;;17.60;99.90;;;;;;5076926;28;20020;-79
2022/10/12 09:52:21;;;;;;;;;;;17.90;99.90;;;;;;5058932;28;19904;-80
2022/10/12 09:54:49;;;;;;;;;;;18.20;99.90;;;;;;5076885;28;20002;-79
2022/10/12 09:57:22;;;;;;;;;;;18.40;99.90;;;;;;5077085;28;20367;-80
2022/10/12 09:59:48;;;;;;;;;;;18.60;99.90;;;;;;5077233;28;19904;-80
2022/10/12 10:02:17;;;;;;;;;;;18.80;99.90;;;;;;5077283;28;20367;-80
2022/10/12 10:04:44;;;;;;;;;;;18.90;99.90;;;;;;5076722;28;20344;-79
2022/10/12 10:07:20;;;;;;;;;;;19.00;99.90;;;;;;5076576;28;19908;-78
2022/10/12 10:09:47;;;;;;;;;;;19.10;99.90;;;;;;5076795;28;19908;-81
2022/10/12 10:12:15;;;;;;;;;;;19.20;99.90;;;;;;5076659;28;19947;-78
2022/10/12 10:14:42;;;;;;;;;;;19.30;99.90;;;;;;5076543;28;19904;-79
2022/10/12 10:17:08;;;;;;;;;;;19.40;99.90;;;;;;5076899;28;19909;-79
2022/10/12 10:19:34;;;;;;;;;;;19.50;99.90;;;;;;5058508;28;19904;-78
2022/10/12 10:22:03;;;;;;;;;;;19.70;99.90;;;;;;5076436;28;20256;-78
2022/10/12 10:24:30;;;;;;;;;;;19.80;99.90;;;;;;5076659;28;20356;-79
2022/10/12 10:27:00;;;;;;;;;;;19.90;99.90;;;;;;5076226;28;19947;-78
2022/10/12 10:29:26;;;;;;;;;;;19.60;99.90;;;;;;5075833;28;20364;-79
2022/10/12 10:32:12;;;;;;;;;;;19.40;99.90;;;;;;5058271;28;19965;-78
2022/10/12 10:34:37;;;;;;;;;;;19.30;99.90;;;;;;5075668;28;19905;-79
2022/10/12 10:37:04;;;;;;;;;;;19.30;99.90;;;;;;5076110;28;19911;-79
2022/10/12 10:39:45;;;;;;;;;;;19.30;99.90;;;;;;5076081;28;19905;-79
2022/10/12 10:42:15;;;;;;;;;;;19.30;99.90;;;;;;5076082;28;20371;-78
2022/10/12 10:44:45;;;;;;;;;;;19.20;99.90;;;;;;5076262;28;19958;-79
2022/10/12 10:47:11;;;;;;;;;;;19.10;99.90;;;;;;5076570;28;19951;-79
2022/10/12 10:49:38;;;;;;;;;;;18.90;99.90;;;;;;5076309;28;20352;-79
2022/10/12 10:52:06;;;;;;;;;;;18.90;99.90;;;;;;5075801;28;20383;-79
2022/10/12 10:54:33;;;;;;;;;;;18.70;99.90;;;;;;5058679;28;19904;-78
2022/10/12 10:57:07;;;;;;;;;;;18.50;99.90;;;;;;5075676;28;19911;-79
2022/10/12 10:59:51;;;;;;;;;;;18.30;99.90;;;;;;5075843;28;19904;-79
2022/10/12 11:02:20;;;;;;;;;;;18.20;99.90;;;;;;5075781;28;20268;-79
2022/10/12 11:04:48;;;;;;;;;;;18.20;99.90;;;;;;5075911;28;19904;-80
2022/10/12 11:07:23;;;;;;;;;;;18.10;99.90;;;;;;5075821;28;19904;-79
2022/10/12 11:09:52;;;;;;;;;;;18.10;99.90;;;;;;5075455;28;19914;-79
2022/10/12 11:12:39;;;;;;;;;;;18.20;99.90;;;;;;5075405;28;19908;-78
2022/10/12 11:15:15;;;;;;;;;;;18.20;99.90;;;;;;5075748;28;20283;-78
2022/10/12 11:17:44;;;;;;;;;;;18.20;99.90;;;;;;5075393;28;19958;-79
2022/10/12 11:20:09;;;;;;;;;;;18.30;99.90;;;;;;5075575;28;20356;-79
2022/10/12 11:22:42;;;;;;;;;;;18.30;99.90;;;;;;5075561;28;19905;-78
2022/10/12 11:25:17;;;;;;;;;;;18.40;99.90;;;;;;5056899;28;20046;-78
2022/10/12 11:27:43;;;;;;;;;;;18.50;99.90;;;;;;5075139;28;19944;-79
2022/10/12 11:30:12;;;;;;;;;;;18.60;99.90;;;;;;5074606;28;19960;-79
2022/10/12 11:32:42;;;;;;;;;;;18.50;99.90;;;;;;5075186;28;19905;-78
2022/10/12 11:35:22;;;;;;;;;;;18.30;99.90;;;;;;5075588;28;19912;-79
2022/10/12 11:37:54;;;;;;;;;;;18.10;99.90;;;;;;5075073;28;20280;-78
2022/10/12 11:40:24;;;;;;;;;;;17.80;99.90;;;;;;5075552;28;19909;-79
2022/10/12 11:42:51;;;;;;;;;;;17.80;99.90;;;;;;5074869;28;19912;-79
2022/10/12 11:45:29;;;;;;;;;;;17.80;99.90;;;;;;5075088;28;19904;-77
2022/10/12 11:47:58;;;;;;;;;;;17.90;99.90;;;;;;5056754;28;20296;-78
2022/10/12 11:50:37;;;;;;;;;;;18.00;99.90;;;;;;5074650;28;20487;-79
2022/10/12 11:53:05;;;;;;;;;;;18.30;99.90;;;;;;5074465;28;19911;-80
2022/10/12 11:55:38;;;;;;;;;;;18.40;99.90;;;;;;5056655;28;19908;-79
2022/10/12 11:58:07;;;;;;;;;;;18.30;99.90;;;;;;5075182;28;19904;-78
2022/10/12 12:00:35;;;;;;;;;;;18.40;99.90;;;;;;5074581;28;19911;-78
2022/10/12 12:03:20;;;;;;;;;;;18.40;99.90;;;;;;5056487;28;19950;-78
2022/10/12 12:05:45;;;;;;;;;;;18.50;99.90;;;;;;5074371;28;19905;-79
2022/10/12 12:08:40;;;;;;;;;;;18.60;99.90;;;;;;5074611;28;19905;-79
2022/10/12 12:11:18;;;;;;;;;;;18.70;99.90;;;;;;5020063;28;19917;-78
2022/10/12 12:13:43;;;;;;;;;;;18.70;99.90;;;;;;5074569;28;19911;-79
2022/10/12 12:16:12;;;;;;;;;;;18.80;99.90;;;;;;5074312;28;20011;-79
2022/10/12 12:18:56;;;;;;;;;;;18.90;99.90;;;;;;5056311;28;19904;-79
2022/10/12 12:21:22;;;;;;;;;;;18.80;99.90;;;;;;5074266;28;19927;-77
2022/10/12 12:23:56;;;;;;;;;;;19.00;99.90;;;;;;5074025;28;20348;-79
2022/10/12 12:26:26;;;;;;;;;;;19.00;99.90;;;;;;5074712;28;19943;-78
2022/10/12 12:29:09;;;;;;;;;;;18.90;99.90;;;;;;5052519;28;19912;-77
2022/10/12 12:31:34;;;;;;;;;;;19.00;99.90;;;;;;5054342;28;19912;-79
2022/10/12 12:34:04;;;;;;;;;;;19.10;99.90;;;;;;5054036;28;20360;-78
2022/10/12 12:36:30;;;;;;;;;;;19.20;99.90;;;;;;5054020;28;19908;-77
2022/10/12 12:38:55;;;;;;;;;;;19.30;99.90;;;;;;5054469;28;19954;-78
2022/10/12 12:41:41;;;;;;;;;;;19.40;99.90;;;;;;5053865;28;20325;-79
2022/10/12 12:44:26;;;;;;;;;;;19.50;99.90;;;;;;5053819;28;20361;-79
2022/10/12 12:46:52;;;;;;;;;;;19.70;99.90;;;;;;5054019;28;19911;-78
2022/10/12 12:49:36;;;;;;;;;;;19.80;99.90;;;;;;5052463;28;19991;-78
2022/10/12 12:52:02;;;;;;;;;;;19.80;99.90;;;;;;5054042;28;19948;-80
2022/10/12 12:54:28;;;;;;;;;;;19.90;99.90;;;;;;5053729;28;19905;-78
2022/10/12 12:57:04;;;;;;;;;;;19.80;99.90;;;;;;5054005;28;19927;-78
2022/10/12 12:59:33;;;;;;;;;;;19.70;99.90;;;;;;5054062;28;19908;-78
2022/10/12 13:02:17;;;;;;;;;;;19.80;99.90;;;;;;5054534;28;19912;-79
2022/10/12 13:04:53;;;;;;;;;;;19.80;99.90;;;;;;5057841;28;19911;-78
2022/10/12 13:07:25;;;;;;;;;;;19.90;99.90;;;;;;5058149;28;19909;-79
2022/10/12 13:09:59;;;;;;;;;;;19.80;99.90;;;;;;5057708;28;19913;-79
2022/10/12 13:12:45;;;;;;;;;;;19.80;99.90;;;;;;5058007;28;20379;-80
2022/10/12 13:15:31;;;;;;;;;;;20.00;99.90;;;;;;5057850;28;19905;-79
2022/10/12 13:18:25;;;;;;;;;;;20.10;99.90;;;;;;5058016;28;20349;-78
2022/10/12 13:20:51;;;;;;;;;;;19.90;99.90;;;;;;5056085;28;19908;-79
2022/10/12 13:23:19;;;;;;;;;;;19.70;99.90;;;;;;5057731;28;19928;-78
2022/10/12 13:25:46;;;;;;;;;;;19.60;99.90;;;;;;5057606;28;19970;-79
2022/10/12 13:28:15;;;;;;;;;;;19.60;99.90;;;;;;5059833;28;19916;-78
2022/10/12 13:30:54;;;;;;;;;;;19.70;99.90;;;;;;5059101;28;20288;-79
2022/10/12 13:33:24;;;;;;;;;;;19.80;99.90;;;;;;5077682;28;20334;-79
2022/10/12 13:36:04;;;;;;;;;;;19.70;99.90;;;;;;5077340;28;20461;-79
2022/10/12 13:38:30;;;;;;;;;;;19.60;99.90;;;;;;5077527;28;19948;-77
2022/10/12 13:41:07;;;;;;;;;;;19.60;99.90;;;;;;5077219;28;19905;-79
2022/10/12 13:43:51;;;;;;;;;;;19.60;99.90;;;;;;5059274;28;19991;-78
2022/10/12 13:46:37;;;;;;;;;;;19.80;99.90;;;;;;5077004;28;19958;-78
2022/10/12 13:49:08;;;;;;;;;;;20.00;99.90;;;;;;5066212;28;20280;-79
2022/10/12 13:51:34;;;;;;;;;;;20.10;99.90;;;;;;5077333;28;20315;-78
2022/10/12 13:54:00;;;;;;;;;;;20.20;99.90;;;;;;5076947;28;19908;-78
2022/10/12 13:56:27;;;;;;;;;;;20.30;99.90;;;;;;5076894;28;19904;-78
2022/10/12 13:58:55;;;;;;;;;;;20.20;99.90;;;;;;5077057;28;20292;-79
2022/10/12 14:01:21;;;;;;;;;;;20.20;99.90;;;;;;5076788;28;19958;-77
2022/10/12 14:03:46;;;;;;;;;;;20.10;99.90;;;;;;5076826;28;19908;-78
2022/10/12 14:06:23;;;;;;;;;;;20.00;99.90;;;;;;5076990;28;20013;-80
2022/10/12 14:08:49;;;;;;;;;;;19.90;99.90;;;;;;5076657;28;20268;-79
2022/10/12 14:11:16;;;;;;;;;;;19.70;99.90;;;;;;5076581;28;19909;-78
2022/10/12 14:13:44;;;;;;;;;;;19.70;99.90;;;;;;5076635;28;19911;-78
2022/10/12 14:16:10;;;;;;;;;;;19.70;99.90;;;;;;5058604;28;19924;-79
2022/10/12 14:18:37;;;;;;;;;;;19.80;99.90;;;;;;5077193;28;19904;-78
2022/10/12 14:21:29;;;;;;;;;;;19.70;99.90;;;;;;5076833;28;19908;-79
2022/10/12 14:23:56;;;;;;;;;;;19.70;99.90;;;;;;5055300;28;19904;-78
2022/10/12 14:26:23;;;;;;;;;;;19.70;99.90;;;;;;5076759;28;19957;-78
2022/10/12 14:28:49;;;;;;;;;;;19.70;99.90;;;;;;5075887;28;19920;-77